createdAt,value
2017-11-30T00:00:05.305Z,16.63
2017-11-30T00:02:34.888Z,15.50
2017-11-30T00:05:04.511Z,15.47
2017-11-30T00:07:34.223Z,16.13
2017-11-30T00:10:03.076Z,15.10
2017-11-30T00:12:31.939Z,15.60
2017-11-30T00:15:00.788Z,15.20
2017-11-30T00:17:29.628Z,12.63
2017-11-30T00:19:58.467Z,14.00
2017-11-30T00:22:27.319Z,14.30
2017-11-30T00:24:56.264Z,13.93
2017-11-30T00:27:25.184Z,14.43
2017-11-30T00:29:54.025Z,14.50
2017-11-30T00:32:22.876Z,13.90
2017-11-30T00:34:52.038Z,13.00
2017-11-30T00:37:21.499Z,13.27
2017-11-30T00:39:50.347Z,14.17
2017-11-30T00:42:25.079Z,14.73
2017-11-30T00:44:53.919Z,14.10
2017-11-30T00:47:22.752Z,15.53
2017-11-30T00:49:51.597Z,14.27
2017-11-30T00:52:20.442Z,15.27
2017-11-30T00:54:49.275Z,15.37
2017-11-30T00:57:18.112Z,18.20
2017-11-30T00:59:47.025Z,16.00
2017-11-30T01:02:15.864Z,16.30
2017-11-30T01:04:44.696Z,17.70
2017-11-30T01:07:13.548Z,17.70
2017-11-30T01:09:42.468Z,18.13
2017-11-30T01:12:11.300Z,17.93
2017-11-30T01:14:40.151Z,17.80
2017-11-30T01:17:08.980Z,16.50
2017-11-30T01:19:37.891Z,17.23
2017-11-30T01:22:07.484Z,18.37
2017-11-30T01:24:37.144Z,15.90
2017-11-30T01:27:06.815Z,16.93
2017-11-30T01:29:36.400Z,17.30
2017-11-30T01:32:06.087Z,16.60
2017-11-30T01:34:35.031Z,15.30
2017-11-30T01:37:03.863Z,17.00
2017-11-30T01:39:32.699Z,17.17
2017-11-30T01:42:01.600Z,18.03
2017-11-30T01:44:30.597Z,17.13
2017-11-30T01:46:59.464Z,17.03
2017-11-30T01:49:28.378Z,15.00
2017-11-30T01:51:57.240Z,15.53
2017-11-30T01:54:26.176Z,17.43
2017-11-30T01:56:55.100Z,16.23
2017-11-30T01:59:23.972Z,15.40
2017-11-30T02:01:52.800Z,16.17
2017-11-30T02:04:21.648Z,15.07
2017-11-30T02:06:50.485Z,15.07
2017-11-30T02:09:19.508Z,14.00
2017-11-30T02:11:48.348Z,16.33
2017-11-30T02:14:17.304Z,16.73
2017-11-30T02:16:46.160Z,15.40
2017-11-30T02:19:15.008Z,17.00
2017-11-30T02:21:43.855Z,17.17
2017-11-30T02:24:12.780Z,16.10
2017-11-30T02:26:41.627Z,15.17
2017-11-30T02:29:10.560Z,16.93
2017-11-30T02:31:39.404Z,16.87
2017-11-30T02:34:09.096Z,16.20
2017-11-30T02:36:38.671Z,16.50
2017-11-30T02:39:08.378Z,14.13
2017-11-30T02:41:38.080Z,14.20
2017-11-30T02:44:07.655Z,16.00
2017-11-30T02:46:36.501Z,15.97
2017-11-30T02:49:05.348Z,17.37
2017-11-30T02:51:34.268Z,16.80
2017-11-30T02:54:03.103Z,17.50
2017-11-30T02:56:31.958Z,17.93
2017-11-30T02:59:01.050Z,19.00
2017-11-30T03:01:29.884Z,17.77
2017-11-30T03:03:58.727Z,20.10
2017-11-30T03:06:27.564Z,19.57
2017-11-30T03:08:56.468Z,18.60
2017-11-30T03:11:25.319Z,20.20
2017-11-30T03:13:54.152Z,20.00
2017-11-30T03:16:23.048Z,19.30
2017-11-30T03:18:51.897Z,19.53
2017-11-30T03:21:20.731Z,19.67
2017-11-30T03:23:49.607Z,19.13
2017-11-30T03:26:18.535Z,20.80
2017-11-30T03:28:47.371Z,19.30
2017-11-30T03:31:16.203Z,18.10
2017-11-30T03:33:45.063Z,18.97
2017-11-30T03:36:13.895Z,20.43
2017-11-30T03:38:42.756Z,17.43
2017-11-30T03:41:11.611Z,17.30
2017-11-30T03:43:41.250Z,19.27
2017-11-30T03:46:10.866Z,16.97
2017-11-30T03:48:40.456Z,16.40
2017-11-30T03:51:10.337Z,15.20
2017-11-30T03:53:40.241Z,16.40
2017-11-30T03:56:09.825Z,13.20
2017-11-30T03:58:38.665Z,13.17
2017-11-30T04:01:07.554Z,12.90
2017-11-30T04:03:36.394Z,11.97
2017-11-30T04:06:05.272Z,11.50
2017-11-30T04:08:34.400Z,12.20
2017-11-30T04:11:03.234Z,11.50
2017-11-30T04:13:32.070Z,11.33
2017-11-30T04:16:00.908Z,10.70
2017-11-30T04:18:29.739Z,11.30
2017-11-30T04:20:58.629Z,11.07
2017-11-30T04:23:27.476Z,10.93
2017-11-30T04:25:56.305Z,11.63
2017-11-30T04:28:25.227Z,10.47
2017-11-30T04:30:54.070Z,11.53
2017-11-30T04:33:22.903Z,12.10
2017-11-30T04:35:51.759Z,13.63
2017-11-30T04:38:20.607Z,11.50
2017-11-30T04:40:49.441Z,12.23
2017-11-30T04:43:18.335Z,11.50
2017-11-30T04:45:47.253Z,12.50
2017-11-30T04:48:16.141Z,12.93
2017-11-30T04:50:45.027Z,12.97
2017-11-30T04:53:13.886Z,12.53
2017-11-30T04:55:43.460Z,12.20
2017-11-30T04:58:13.106Z,12.50
2017-11-30T05:00:42.731Z,12.90
2017-11-30T05:03:12.375Z,11.43
2017-11-30T05:05:41.968Z,11.80
2017-11-30T05:08:11.554Z,12.23
2017-11-30T05:10:41.382Z,12.90
2017-11-30T05:13:10.238Z,13.73
2017-11-30T05:15:39.140Z,14.10
2017-11-30T05:18:07.970Z,14.00
2017-11-30T05:20:36.818Z,13.23
2017-11-30T05:23:05.692Z,13.47
2017-11-30T05:25:34.537Z,15.50
2017-11-30T05:28:03.417Z,14.80
2017-11-30T05:30:32.280Z,16.57
2017-11-30T05:33:01.120Z,15.73
2017-11-30T05:35:29.994Z,14.90
2017-11-30T05:37:58.826Z,15.13
2017-11-30T05:40:27.655Z,16.03
2017-11-30T05:42:56.502Z,15.87
2017-11-30T05:45:25.659Z,17.33
2017-11-30T05:47:54.491Z,16.30
2017-11-30T05:50:23.356Z,18.43
2017-11-30T05:52:52.191Z,17.20
2017-11-30T05:55:21.020Z,16.00
2017-11-30T05:57:49.880Z,17.20
2017-11-30T06:00:18.740Z,19.10
2017-11-30T06:02:47.597Z,19.67
2017-11-30T06:05:16.450Z,20.80
2017-11-30T06:07:45.301Z,21.40
2017-11-30T06:10:14.489Z,21.12
2017-11-30T06:12:44.080Z,21.27
2017-11-30T06:15:13.653Z,21.57
2017-11-30T06:17:43.233Z,22.92
2017-11-30T06:20:12.832Z,19.13
2017-11-30T06:22:41.748Z,21.27
2017-11-30T06:25:10.608Z,23.17
2017-11-30T06:27:40.133Z,22.83
2017-11-30T06:30:08.995Z,21.63
2017-11-30T06:32:37.834Z,21.40
2017-11-30T06:35:07.245Z,20.87
2017-11-30T06:37:36.079Z,22.27
2017-11-30T06:40:04.912Z,19.93
2017-11-30T06:42:33.847Z,20.27
2017-11-30T06:45:02.684Z,21.43
2017-11-30T06:47:31.543Z,19.77
2017-11-30T06:50:00.517Z,19.90
2017-11-30T06:52:29.381Z,19.40
2017-11-30T06:54:58.213Z,18.97
2017-11-30T06:57:27.063Z,19.83
2017-11-30T06:59:55.897Z,18.97
2017-11-30T07:02:24.852Z,18.93
2017-11-30T07:04:53.695Z,17.97
2017-11-30T07:07:22.527Z,19.67
2017-11-30T07:09:51.377Z,18.60
2017-11-30T07:12:20.235Z,22.93
2017-11-30T07:14:49.092Z,22.33
2017-11-30T07:17:17.953Z,20.27
2017-11-30T07:19:46.800Z,19.90
2017-11-30T07:22:16.429Z,19.10
2017-11-30T07:24:46.704Z,19.93
2017-11-30T07:27:16.296Z,19.20
2017-11-30T07:29:45.872Z,20.70
2017-11-30T07:32:15.454Z,19.70
2017-11-30T07:34:45.044Z,20.13
2017-11-30T07:37:13.884Z,20.13
2017-11-30T07:39:42.721Z,19.23
2017-11-30T07:42:11.588Z,21.93
2017-11-30T07:44:40.427Z,19.70
2017-11-30T07:47:09.373Z,20.60
2017-11-30T07:49:38.232Z,19.57
2017-11-30T07:52:07.151Z,18.97
2017-11-30T07:54:35.981Z,18.33
2017-11-30T07:57:05.073Z,19.00
2017-11-30T07:59:33.924Z,18.47
2017-11-30T08:02:02.759Z,18.20
2017-11-30T08:04:31.629Z,16.73
2017-11-30T08:07:00.465Z,16.23
2017-11-30T08:09:29.305Z,17.27
2017-11-30T08:11:58.153Z,17.20
2017-11-30T08:14:26.988Z,17.30
2017-11-30T08:16:55.825Z,16.80
2017-11-30T08:19:24.673Z,15.30
2017-11-30T08:21:53.502Z,15.47
2017-11-30T08:24:22.328Z,16.50
2017-11-30T08:26:51.180Z,16.27
2017-11-30T08:29:20.008Z,16.20
2017-11-30T08:31:48.864Z,15.33
2017-11-30T08:34:17.703Z,16.13
2017-11-30T08:36:47.280Z,14.53
2017-11-30T08:39:16.872Z,16.47
2017-11-30T08:41:46.731Z,14.80
2017-11-30T08:44:16.318Z,14.80
2017-11-30T08:46:45.908Z,15.57
2017-11-30T08:49:15.504Z,13.93
2017-11-30T08:51:44.335Z,14.27
2017-11-30T08:54:13.192Z,15.10
2017-11-30T08:56:42.047Z,15.27
2017-11-30T08:59:10.881Z,15.53
2017-11-30T09:01:39.801Z,14.10
2017-11-30T09:04:08.655Z,15.00
2017-11-30T09:06:37.574Z,13.63
2017-11-30T09:09:06.436Z,15.00
2017-11-30T09:11:35.271Z,15.13
2017-11-30T09:14:04.115Z,15.37
2017-11-30T09:16:33.040Z,14.80
2017-11-30T09:19:01.888Z,16.37
2017-11-30T09:21:30.745Z,15.20
2017-11-30T09:23:59.605Z,14.80
2017-11-30T09:26:28.453Z,14.43
2017-11-30T09:28:57.293Z,15.93
2017-11-30T09:31:26.137Z,15.63
2017-11-30T09:33:54.990Z,15.53
2017-11-30T09:36:23.832Z,15.27
2017-11-30T09:38:53.555Z,17.07
2017-11-30T09:41:22.396Z,15.23
2017-11-30T09:43:51.240Z,15.53
2017-11-30T09:46:20.812Z,16.13
2017-11-30T09:48:49.653Z,16.27
2017-11-30T09:51:18.724Z,15.10
2017-11-30T09:53:48.373Z,16.37
2017-11-30T09:56:18.191Z,14.43
2017-11-30T09:58:47.779Z,14.50
2017-11-30T10:01:17.371Z,16.03
2017-11-30T10:03:46.985Z,15.63
2017-11-30T10:06:15.831Z,15.30
2017-11-30T10:08:44.663Z,14.47
2017-11-30T10:11:13.501Z,15.50
2017-11-30T10:13:42.357Z,15.13
2017-11-30T10:16:11.228Z,13.80
2017-11-30T10:18:40.065Z,14.80
2017-11-30T10:21:08.908Z,13.80
2017-11-30T10:23:38.628Z,13.83
2017-11-30T10:26:07.465Z,13.83
2017-11-30T10:28:36.324Z,14.40
2017-11-30T10:31:05.160Z,18.20
2017-11-30T10:33:34.000Z,13.73
2017-11-30T10:36:02.872Z,16.40
2017-11-30T10:38:31.762Z,16.83
2017-11-30T10:41:00.600Z,18.03
2017-11-30T10:43:29.441Z,16.40
2017-11-30T10:45:58.274Z,15.40
2017-11-30T10:48:27.111Z,16.07
2017-11-30T10:50:55.959Z,15.30
2017-11-30T10:53:24.803Z,17.00
2017-11-30T10:55:53.641Z,14.93
2017-11-30T10:58:22.847Z,14.50
2017-11-30T11:00:51.683Z,15.13
2017-11-30T11:03:20.516Z,15.87
2017-11-30T11:05:49.905Z,14.63
2017-11-30T11:08:19.479Z,15.33
2017-11-30T11:10:49.069Z,15.53
2017-11-30T11:13:18.657Z,14.83
2017-11-30T11:15:48.233Z,15.50
2017-11-30T11:18:17.085Z,14.10
2017-11-30T11:20:45.945Z,14.70
2017-11-30T11:23:14.869Z,14.80
2017-11-30T11:25:43.704Z,14.77
2017-11-30T11:28:12.544Z,14.73
2017-11-30T11:30:41.416Z,15.23
2017-11-30T11:33:10.332Z,16.20
2017-11-30T11:35:39.179Z,14.10
2017-11-30T11:38:08.009Z,12.43
2017-11-30T11:40:36.840Z,13.83
2017-11-30T11:43:05.719Z,13.43
2017-11-30T11:45:34.551Z,13.57
2017-11-30T11:48:03.389Z,14.20
2017-11-30T11:50:32.236Z,13.03
2017-11-30T11:53:01.190Z,13.53
2017-11-30T11:55:30.024Z,13.57
2017-11-30T11:57:58.865Z,13.50
2017-11-30T12:00:27.789Z,12.80
2017-11-30T12:02:56.679Z,11.90
2017-11-30T12:05:25.664Z,12.10
2017-11-30T12:07:54.497Z,12.47
2017-11-30T12:10:23.328Z,13.07
2017-11-30T12:12:52.205Z,13.30
2017-11-30T12:15:21.036Z,12.90
2017-11-30T12:17:50.740Z,12.50
2017-11-30T12:20:20.326Z,12.10
2017-11-30T12:22:49.918Z,11.93
2017-11-30T12:25:19.504Z,12.70
2017-11-30T12:27:49.099Z,12.57
2017-11-30T12:30:17.932Z,11.77
2017-11-30T12:32:46.769Z,12.80
2017-11-30T12:35:15.623Z,12.43
2017-11-30T12:37:44.484Z,11.60
2017-11-30T12:40:13.313Z,12.27
2017-11-30T12:42:42.196Z,10.70
2017-11-30T12:45:11.056Z,10.80
2017-11-30T12:47:39.898Z,10.57
2017-11-30T12:50:09.147Z,9.60
2017-11-30T12:52:38.020Z,8.90
2017-11-30T12:55:06.854Z,8.77
2017-11-30T12:57:35.698Z,9.97
2017-11-30T13:00:04.626Z,9.10
2017-11-30T13:02:33.449Z,8.83
2017-11-30T13:05:02.287Z,9.50
2017-11-30T13:07:31.121Z,8.90
2017-11-30T13:09:59.967Z,8.20
2017-11-30T13:12:28.801Z,8.73
2017-11-30T13:14:57.625Z,9.00
2017-11-30T13:17:26.523Z,8.73
2017-11-30T13:19:55.357Z,8.40
2017-11-30T13:22:24.179Z,8.10
2017-11-30T13:24:53.085Z,7.60
2017-11-30T13:27:22.004Z,7.67
2017-11-30T13:29:51.588Z,9.00
2017-11-30T13:32:21.169Z,8.90
2017-11-30T13:34:50.826Z,8.47
2017-11-30T13:37:20.386Z,7.00
2017-11-30T13:39:49.214Z,6.27
2017-11-30T13:42:18.052Z,6.70
2017-11-30T13:44:46.874Z,7.30
2017-11-30T13:47:15.694Z,7.00
2017-11-30T13:49:44.530Z,7.70
2017-11-30T13:52:13.368Z,7.17
2017-11-30T13:54:42.198Z,7.80
2017-11-30T13:57:11.130Z,7.93
2017-11-30T13:59:39.962Z,4.40
2017-11-30T14:02:08.842Z,3.90
2017-11-30T14:04:37.692Z,3.37
2017-11-30T14:07:06.606Z,3.30
2017-11-30T14:09:35.438Z,4.17
2017-11-30T14:12:04.286Z,4.33
2017-11-30T14:14:33.287Z,4.23
2017-11-30T14:17:02.109Z,4.80
2017-11-30T14:19:30.947Z,4.10
2017-11-30T14:21:59.775Z,4.00
2017-11-30T14:24:28.665Z,4.87
2017-11-30T14:26:57.503Z,4.67
2017-11-30T14:29:26.518Z,5.17
2017-11-30T14:31:55.329Z,5.50
2017-11-30T14:34:24.192Z,5.80
2017-11-30T14:36:53.099Z,6.37
2017-11-30T14:39:22.656Z,5.53
2017-11-30T14:41:52.233Z,5.67
2017-11-30T14:44:21.823Z,5.70
2017-11-30T14:46:51.446Z,5.03
2017-11-30T14:49:21.030Z,6.63
2017-11-30T14:51:49.854Z,6.70
2017-11-30T14:54:18.676Z,7.00
2017-11-30T14:56:47.606Z,5.67
2017-11-30T14:59:16.438Z,6.17
2017-11-30T15:01:45.258Z,6.43
2017-11-30T15:04:14.102Z,11.50
2017-11-30T15:06:43.634Z,9.43
2017-11-30T15:09:12.474Z,11.13
2017-11-30T15:11:41.309Z,7.23
2017-11-30T15:14:10.138Z,7.33
2017-11-30T15:16:39.043Z,6.37
2017-11-30T15:19:07.882Z,7.80
2017-11-30T15:21:36.715Z,8.53
2017-11-30T15:24:05.545Z,8.27
2017-11-30T15:26:34.389Z,7.90
2017-11-30T15:29:03.219Z,9.93
2017-11-30T15:31:32.044Z,8.97
2017-11-30T15:34:00.962Z,10.13
2017-11-30T15:36:29.795Z,10.90
2017-11-30T15:38:58.619Z,11.13
2017-11-30T15:41:27.449Z,9.30
2017-11-30T15:43:57.228Z,14.27
2017-11-30T15:46:26.123Z,10.70
2017-11-30T15:48:55.023Z,10.53
2017-11-30T15:51:23.862Z,11.03
2017-11-30T15:53:53.434Z,10.67
2017-11-30T15:56:23.066Z,10.33
2017-11-30T15:58:52.640Z,10.93
2017-11-30T16:01:22.214Z,12.23
2017-11-30T16:03:51.076Z,12.47
2017-11-30T16:06:19.903Z,13.17
2017-11-30T16:08:48.738Z,12.20
2017-11-30T16:11:17.581Z,11.97
2017-11-30T16:13:46.414Z,13.07
2017-11-30T16:16:15.246Z,10.53
2017-11-30T16:18:44.089Z,11.33
2017-11-30T16:21:12.930Z,11.37
2017-11-30T16:23:41.792Z,10.50
2017-11-30T16:26:10.641Z,12.07
2017-11-30T16:28:39.476Z,11.53
2017-11-30T16:31:08.301Z,11.97
2017-11-30T16:33:37.145Z,11.30
2017-11-30T16:36:06.020Z,12.10
2017-11-30T16:38:34.855Z,11.30
2017-11-30T16:41:03.723Z,11.87
2017-11-30T16:43:32.571Z,19.33
2017-11-30T16:46:01.406Z,17.53
2017-11-30T16:48:30.254Z,44.17
2017-11-30T16:50:59.118Z,34.63
2017-11-30T16:53:27.959Z,15.70
2017-11-30T16:55:57.038Z,15.10
2017-11-30T16:58:25.862Z,20.77
2017-11-30T17:00:54.854Z,17.48
2017-11-30T17:03:24.434Z,18.30
2017-11-30T17:05:54.030Z,17.33
2017-11-30T17:08:23.616Z,14.77
2017-11-30T17:10:53.206Z,13.73
2017-11-30T17:13:22.042Z,16.80
2017-11-30T17:15:50.869Z,16.33
2017-11-30T17:18:19.710Z,17.03
2017-11-30T17:20:48.597Z,16.97
2017-11-30T17:23:17.431Z,16.47
2017-11-30T17:25:46.278Z,18.17
2017-11-30T17:28:15.116Z,22.47
2017-11-30T17:30:44.453Z,21.93
2017-11-30T17:33:13.291Z,22.67
2017-11-30T17:35:42.142Z,24.53
2017-11-30T17:38:10.979Z,20.17
2017-11-30T17:40:39.929Z,17.70
2017-11-30T17:43:08.761Z,15.97
2017-11-30T17:45:37.605Z,15.20
2017-11-30T17:48:06.462Z,19.00
2017-11-30T17:50:35.295Z,23.20
2017-11-30T17:53:04.151Z,22.67
2017-11-30T17:55:32.994Z,27.60
2017-11-30T17:58:01.863Z,31.70
2017-11-30T18:00:30.786Z,35.13
2017-11-30T18:02:59.750Z,33.93
2017-11-30T18:05:28.582Z,31.63
2017-11-30T18:07:57.434Z,30.40
2017-11-30T18:10:26.322Z,26.93
2017-11-30T18:12:55.898Z,25.13
2017-11-30T18:15:26.513Z,26.63
2017-11-30T18:17:56.172Z,25.70
2017-11-30T18:20:25.850Z,25.30
2017-11-30T18:22:55.478Z,21.73
2017-11-30T18:25:25.079Z,23.73
2017-11-30T18:27:54.651Z,22.63
2017-11-30T18:30:23.479Z,22.20
2017-11-30T18:32:52.331Z,19.73
2017-11-30T18:35:21.803Z,21.00
2017-11-30T18:37:50.635Z,19.03
2017-11-30T18:40:19.483Z,34.93
2017-11-30T18:42:48.309Z,22.90
2017-11-30T18:45:17.137Z,19.53
2017-11-30T18:47:46.003Z,22.10
2017-11-30T18:50:14.842Z,21.03
2017-11-30T18:52:43.667Z,24.73
2017-11-30T18:55:12.734Z,24.03
2017-11-30T18:57:41.560Z,22.43
2017-11-30T19:00:10.401Z,22.10
2017-11-30T19:02:39.274Z,22.07
2017-11-30T19:05:08.110Z,25.27
2017-11-30T19:07:36.954Z,21.50
2017-11-30T19:10:05.846Z,24.40
2017-11-30T19:12:34.686Z,25.87
2017-11-30T19:15:03.523Z,23.97
2017-11-30T19:17:32.718Z,22.15
2017-11-30T19:20:01.547Z,26.83
2017-11-30T19:22:30.412Z,25.47
2017-11-30T19:25:00.107Z,21.90
2017-11-30T19:27:28.942Z,22.17
2017-11-30T19:29:57.787Z,21.30
2017-11-30T19:32:27.395Z,20.00
2017-11-30T19:34:57.020Z,18.60
2017-11-30T19:37:26.649Z,18.63
2017-11-30T19:39:56.239Z,18.23
2017-11-30T19:42:25.083Z,16.90
2017-11-30T19:44:54.217Z,17.70
2017-11-30T19:47:23.071Z,17.00
2017-11-30T19:49:51.915Z,18.20
2017-11-30T19:52:20.774Z,16.77
2017-11-30T19:54:49.615Z,18.30
2017-11-30T19:57:18.455Z,17.63
2017-11-30T19:59:47.308Z,20.00
2017-11-30T20:02:16.175Z,20.43
2017-11-30T20:04:45.008Z,20.13
2017-11-30T20:07:13.864Z,19.07
2017-11-30T20:09:42.708Z,19.77
2017-11-30T20:12:11.552Z,25.97
2017-11-30T20:14:40.386Z,31.93
2017-11-30T20:17:09.222Z,22.73
2017-11-30T20:19:38.074Z,23.23
2017-11-30T20:22:06.920Z,29.40
2017-11-30T20:24:35.780Z,24.67
2017-11-30T20:27:04.628Z,28.43
2017-11-30T20:29:33.466Z,26.30
2017-11-30T20:32:02.429Z,23.70
2017-11-30T20:34:31.323Z,19.73
2017-11-30T20:37:00.197Z,19.03
2017-11-30T20:39:29.047Z,18.80
2017-11-30T20:41:58.629Z,18.53
2017-11-30T20:44:28.211Z,19.30
2017-11-30T20:46:57.823Z,17.80
2017-11-30T20:49:27.399Z,20.93
2017-11-30T20:51:56.426Z,22.47
2017-11-30T20:54:25.315Z,22.30
2017-11-30T20:56:54.205Z,23.83
2017-11-30T20:59:23.040Z,21.13
2017-11-30T21:01:51.884Z,21.40
2017-11-30T21:04:20.710Z,17.83
2017-11-30T21:06:49.558Z,20.43
2017-11-30T21:09:18.470Z,18.27
2017-11-30T21:11:47.308Z,19.13
2017-11-30T21:14:16.198Z,18.47
2017-11-30T21:16:45.040Z,18.47
2017-11-30T21:19:13.909Z,18.30
2017-11-30T21:21:42.756Z,19.20
2017-11-30T21:24:12.062Z,19.63
2017-11-30T21:26:40.908Z,20.50
2017-11-30T21:29:09.866Z,20.60
2017-11-30T21:31:39.011Z,29.97
2017-11-30T21:34:07.838Z,23.23
2017-11-30T21:36:36.780Z,21.50
2017-11-30T21:39:05.619Z,22.57
2017-11-30T21:41:34.455Z,20.13
2017-11-30T21:44:03.525Z,30.10
2017-11-30T21:46:32.396Z,20.57
2017-11-30T21:49:01.238Z,21.73
2017-11-30T21:51:30.451Z,21.05
2017-11-30T21:54:00.248Z,20.83
2017-11-30T21:56:29.863Z,20.17
2017-11-30T21:58:59.438Z,20.07
2017-11-30T22:01:29.048Z,19.73
2017-11-30T22:03:58.659Z,22.43
2017-11-30T22:06:27.488Z,21.43
2017-11-30T22:08:56.352Z,20.60
2017-11-30T22:11:25.194Z,21.23
2017-11-30T22:13:54.134Z,23.40
2017-11-30T22:16:22.986Z,19.63
2017-11-30T22:18:51.830Z,19.20
2017-11-30T22:21:20.673Z,19.70
2017-11-30T22:23:49.534Z,19.90
2017-11-30T22:26:18.366Z,19.30
2017-11-30T22:28:47.202Z,18.77
2017-11-30T22:31:16.045Z,18.93
2017-11-30T22:33:44.877Z,18.80
2017-11-30T22:36:13.705Z,18.70
2017-11-30T22:38:42.541Z,19.83
2017-11-30T22:41:11.371Z,19.80
2017-11-30T22:43:41.115Z,21.07
2017-11-30T22:46:09.956Z,20.40
2017-11-30T22:48:38.791Z,22.40
2017-11-30T22:51:07.694Z,21.47
2017-11-30T22:53:36.547Z,22.17
2017-11-30T22:56:06.241Z,21.60
2017-11-30T22:58:35.116Z,21.53
2017-11-30T23:01:03.957Z,23.63
2017-11-30T23:03:32.796Z,23.53
2017-11-30T23:06:02.007Z,21.60
2017-11-30T23:08:31.594Z,22.90
2017-11-30T23:11:01.171Z,25.03
2017-11-30T23:13:30.810Z,27.47
2017-11-30T23:16:00.494Z,25.20
2017-11-30T23:18:29.336Z,25.47
2017-11-30T23:20:58.170Z,25.07
2017-11-30T23:23:27.070Z,23.23
2017-11-30T23:25:55.918Z,23.00
2017-11-30T23:28:24.762Z,22.13
2017-11-30T23:30:53.596Z,21.90
2017-11-30T23:33:22.432Z,21.87
2017-11-30T23:35:51.274Z,21.80
2017-11-30T23:38:20.110Z,21.90
2017-11-30T23:40:48.953Z,20.80
2017-11-30T23:43:17.807Z,19.13
2017-11-30T23:45:46.637Z,22.23
2017-11-30T23:48:15.466Z,21.70
2017-11-30T23:50:44.403Z,21.33
2017-11-30T23:53:13.234Z,20.93
2017-11-30T23:55:42.073Z,22.10
2017-11-30T23:58:10.919Z,21.30
